sensor_id;sensor_type;location;lat;lon;timestamp;P1;durP1;ratioP1;P2;durP2;ratioP2
37527;SDS011;23372;52.050;4.810;2023-10-13T00:00:25;27.77;;;13.02;;
37527;SDS011;23372;52.050;4.810;2023-10-13T00:02:51;30.05;;;12.98;;
37527;SDS011;23372;52.050;4.810;2023-10-13T00:05:20;28.38;;;13.88;;
37527;SDS011;23372;52.050;4.810;2023-10-13T00:07:46;28.65;;;14.70;;
37527;SDS011;23372;52.050;4.810;2023-10-13T00:10:11;27.45;;;14.88;;
37527;SDS011;23372;52.050;4.810;2023-10-13T00:12:37;23.42;;;13.07;;
37527;SDS011;23372;52.050;4.810;2023-10-13T00:15:03;25.30;;;13.63;;
37527;SDS011;23372;52.050;4.810;2023-10-13T00:17:32;30.83;;;14.88;;
37527;SDS011;23372;52.050;4.810;2023-10-13T00:19:57;30.95;;;15.05;;
37527;SDS011;23372;52.050;4.810;2023-10-13T00:22:25;36.08;;;15.13;;
37527;SDS011;23372;52.050;4.810;2023-10-13T00:24:56;33.85;;;15.50;;
37527;SDS011;23372;52.050;4.810;2023-10-13T00:27:28;37.30;;;17.30;;
37527;SDS011;23372;52.050;4.810;2023-10-13T00:29:57;36.50;;;16.42;;
37527;SDS011;23372;52.050;4.810;2023-10-13T00:32:42;37.28;;;16.92;;
37527;SDS011;23372;52.050;4.810;2023-10-13T00:35:10;41.65;;;16.88;;
37527;SDS011;23372;52.050;4.810;2023-10-13T00:37:38;43.58;;;18.60;;
37527;SDS011;23372;52.050;4.810;2023-10-13T00:40:09;42.22;;;19.17;;
37527;SDS011;23372;52.050;4.810;2023-10-13T00:42:51;42.83;;;19.13;;
37527;SDS011;23372;52.050;4.810;2023-10-13T00:45:17;38.60;;;19.60;;
37527;SDS011;23372;52.050;4.810;2023-10-13T00:47:43;37.35;;;17.95;;
37527;SDS011;23372;52.050;4.810;2023-10-13T00:50:21;41.63;;;19.15;;
37527;SDS011;23372;52.050;4.810;2023-10-13T00:52:48;39.85;;;17.00;;
37527;SDS011;23372;52.050;4.810;2023-10-13T00:55:15;34.13;;;17.48;;
37527;SDS011;23372;52.050;4.810;2023-10-13T00:57:43;32.90;;;17.73;;
37527;SDS011;23372;52.050;4.810;2023-10-13T01:00:11;35.22;;;16.67;;
37527;SDS011;23372;52.050;4.810;2023-10-13T01:02:44;35.10;;;16.52;;
37527;SDS011;23372;52.050;4.810;2023-10-13T01:05:24;36.03;;;16.73;;
37527;SDS011;23372;52.050;4.810;2023-10-13T01:07:51;27.42;;;15.63;;
37527;SDS011;23372;52.050;4.810;2023-10-13T01:10:20;29.38;;;16.67;;
37527;SDS011;23372;52.050;4.810;2023-10-13T01:12:51;31.13;;;16.33;;
37527;SDS011;23372;52.050;4.810;2023-10-13T01:15:17;32.47;;;15.57;;
37527;SDS011;23372;52.050;4.810;2023-10-13T01:17:46;32.55;;;15.48;;
37527;SDS011;23372;52.050;4.810;2023-10-13T01:20:15;34.67;;;15.63;;
37527;SDS011;23372;52.050;4.810;2023-10-13T01:22:50;33.83;;;15.40;;
37527;SDS011;23372;52.050;4.810;2023-10-13T01:25:23;31.63;;;16.77;;
37527;SDS011;23372;52.050;4.810;2023-10-13T01:27:52;27.55;;;16.08;;
37527;SDS011;23372;52.050;4.810;2023-10-13T01:30:19;27.80;;;14.73;;
37527;SDS011;23372;52.050;4.810;2023-10-13T01:32:51;28.50;;;14.75;;
37527;SDS011;23372;52.050;4.810;2023-10-13T01:35:19;26.20;;;13.93;;
37527;SDS011;23372;52.050;4.810;2023-10-13T01:37:50;23.88;;;12.95;;
37527;SDS011;23372;52.050;4.810;2023-10-13T01:40:16;30.13;;;13.90;;
37527;SDS011;23372;52.050;4.810;2023-10-13T01:42:44;32.38;;;14.30;;
37527;SDS011;23372;52.050;4.810;2023-10-13T01:45:11;33.08;;;12.68;;
37527;SDS011;23372;52.050;4.810;2023-10-13T01:47:39;28.77;;;12.88;;
37527;SDS011;23372;52.050;4.810;2023-10-13T01:50:05;27.70;;;11.57;;
37527;SDS011;23372;52.050;4.810;2023-10-13T01:52:39;21.98;;;12.82;;
37527;SDS011;23372;52.050;4.810;2023-10-13T01:55:07;24.10;;;11.40;;
37527;SDS011;23372;52.050;4.810;2023-10-13T01:57:35;29.65;;;12.05;;
37527;SDS011;23372;52.050;4.810;2023-10-13T02:00:00;21.98;;;12.25;;
37527;SDS011;23372;52.050;4.810;2023-10-13T02:02:43;24.45;;;11.00;;
37527;SDS011;23372;52.050;4.810;2023-10-13T02:05:10;30.25;;;11.88;;
37527;SDS011;23372;52.050;4.810;2023-10-13T02:07:37;26.45;;;12.15;;
37527;SDS011;23372;52.050;4.810;2023-10-13T02:10:03;19.55;;;10.73;;
37527;SDS011;23372;52.050;4.810;2023-10-13T02:12:30;23.73;;;10.98;;
37527;SDS011;23372;52.050;4.810;2023-10-13T02:15:07;24.77;;;11.02;;
37527;SDS011;23372;52.050;4.810;2023-10-13T02:17:46;25.20;;;11.30;;
37527;SDS011;23372;52.050;4.810;2023-10-13T02:20:16;23.60;;;12.30;;
37527;SDS011;23372;52.050;4.810;2023-10-13T02:22:43;21.75;;;11.38;;
37527;SDS011;23372;52.050;4.810;2023-10-13T02:25:17;27.38;;;11.48;;
37527;SDS011;23372;52.050;4.810;2023-10-13T02:28:08;24.73;;;11.85;;
37527;SDS011;23372;52.050;4.810;2023-10-13T02:30:46;22.05;;;11.15;;
37527;SDS011;23372;52.050;4.810;2023-10-13T02:33:15;21.80;;;11.77;;
37527;SDS011;23372;52.050;4.810;2023-10-13T02:35:54;22.67;;;12.02;;
37527;SDS011;23372;52.050;4.810;2023-10-13T02:38:24;29.33;;;12.27;;
37527;SDS011;23372;52.050;4.810;2023-10-13T02:40:58;23.10;;;11.95;;
37527;SDS011;23372;52.050;4.810;2023-10-13T02:43:32;25.20;;;11.75;;
37527;SDS011;23372;52.050;4.810;2023-10-13T02:45:58;27.13;;;13.20;;
37527;SDS011;23372;52.050;4.810;2023-10-13T02:48:28;22.15;;;12.13;;
37527;SDS011;23372;52.050;4.810;2023-10-13T02:51:07;30.08;;;12.15;;
37527;SDS011;23372;52.050;4.810;2023-10-13T02:53:46;28.27;;;12.07;;
37527;SDS011;23372;52.050;4.810;2023-10-13T02:56:13;34.05;;;12.05;;
37527;SDS011;23372;52.050;4.810;2023-10-13T02:58:45;26.35;;;12.68;;
37527;SDS011;23372;52.050;4.810;2023-10-13T03:01:18;30.83;;;11.98;;
37527;SDS011;23372;52.050;4.810;2023-10-13T03:03:46;25.35;;;12.27;;
37527;SDS011;23372;52.050;4.810;2023-10-13T03:06:19;24.77;;;11.85;;
37527;SDS011;23372;52.050;4.810;2023-10-13T03:08:48;24.05;;;11.30;;
37527;SDS011;23372;52.050;4.810;2023-10-13T03:11:14;27.73;;;11.20;;
37527;SDS011;23372;52.050;4.810;2023-10-13T03:13:46;25.58;;;10.98;;
37527;SDS011;23372;52.050;4.810;2023-10-13T03:16:14;21.23;;;10.95;;
37527;SDS011;23372;52.050;4.810;2023-10-13T03:18:45;22.42;;;11.23;;
37527;SDS011;23372;52.050;4.810;2023-10-13T03:21:19;29.55;;;12.30;;
37527;SDS011;23372;52.050;4.810;2023-10-13T03:23:54;23.60;;;11.63;;
37527;SDS011;23372;52.050;4.810;2023-10-13T03:26:30;27.80;;;10.73;;
37527;SDS011;23372;52.050;4.810;2023-10-13T03:29:00;22.00;;;10.20;;
37527;SDS011;23372;52.050;4.810;2023-10-13T03:31:29;23.60;;;10.43;;
37527;SDS011;23372;52.050;4.810;2023-10-13T03:33:55;18.35;;;9.00;;
37527;SDS011;23372;52.050;4.810;2023-10-13T03:36:26;18.35;;;9.70;;
37527;SDS011;23372;52.050;4.810;2023-10-13T03:39:11;22.60;;;10.60;;
37527;SDS011;23372;52.050;4.810;2023-10-13T03:41:36;22.42;;;11.05;;
37527;SDS011;23372;52.050;4.810;2023-10-13T03:44:03;28.77;;;11.10;;
37527;SDS011;23372;52.050;4.810;2023-10-13T03:46:42;27.27;;;11.02;;
37527;SDS011;23372;52.050;4.810;2023-10-13T03:49:10;23.73;;;11.65;;
37527;SDS011;23372;52.050;4.810;2023-10-13T03:51:41;22.77;;;11.02;;
37527;SDS011;23372;52.050;4.810;2023-10-13T03:54:07;23.23;;;10.73;;
37527;SDS011;23372;52.050;4.810;2023-10-13T03:56:32;21.20;;;11.43;;
37527;SDS011;23372;52.050;4.810;2023-10-13T03:59:04;28.63;;;11.25;;
37527;SDS011;23372;52.050;4.810;2023-10-13T04:01:56;24.80;;;11.85;;
37527;SDS011;23372;52.050;4.810;2023-10-13T04:04:27;33.10;;;11.73;;
37527;SDS011;23372;52.050;4.810;2023-10-13T04:07:12;25.40;;;13.13;;
37527;SDS011;23372;52.050;4.810;2023-10-13T04:09:37;27.73;;;12.60;;
37527;SDS011;23372;52.050;4.810;2023-10-13T04:12:04;26.17;;;13.10;;
37527;SDS011;23372;52.050;4.810;2023-10-13T04:14:37;23.98;;;13.35;;
37527;SDS011;23372;52.050;4.810;2023-10-13T04:17:41;24.58;;;13.80;;
37527;SDS011;23372;52.050;4.810;2023-10-13T04:20:10;24.70;;;14.32;;
37527;SDS011;23372;52.050;4.810;2023-10-13T04:22:36;26.98;;;14.48;;
37527;SDS011;23372;52.050;4.810;2023-10-13T04:25:12;24.88;;;14.95;;
37527;SDS011;23372;52.050;4.810;2023-10-13T04:27:56;23.77;;;13.98;;
37527;SDS011;23372;52.050;4.810;2023-10-13T04:30:37;22.65;;;14.13;;
37527;SDS011;23372;52.050;4.810;2023-10-13T04:33:24;21.83;;;13.25;;
37527;SDS011;23372;52.050;4.810;2023-10-13T04:36:01;23.63;;;14.32;;
37527;SDS011;23372;52.050;4.810;2023-10-13T04:38:30;22.85;;;14.10;;
37527;SDS011;23372;52.050;4.810;2023-10-13T04:40:59;22.75;;;14.60;;
37527;SDS011;23372;52.050;4.810;2023-10-13T04:43:26;24.33;;;14.63;;
37527;SDS011;23372;52.050;4.810;2023-10-13T04:46:12;24.38;;;14.82;;
37527;SDS011;23372;52.050;4.810;2023-10-13T04:49:00;22.45;;;14.85;;
37527;SDS011;23372;52.050;4.810;2023-10-13T04:51:34;23.70;;;14.50;;
37527;SDS011;23372;52.050;4.810;2023-10-13T04:54:24;24.02;;;15.85;;
37527;SDS011;23372;52.050;4.810;2023-10-13T04:57:10;26.73;;;13.90;;
37527;SDS011;23372;52.050;4.810;2023-10-13T04:59:51;25.30;;;14.35;;
37527;SDS011;23372;52.050;4.810;2023-10-13T05:02:36;18.67;;;12.45;;
37527;SDS011;23372;52.050;4.810;2023-10-13T05:05:07;21.02;;;12.63;;
37527;SDS011;23372;52.050;4.810;2023-10-13T05:07:46;20.00;;;11.30;;
37527;SDS011;23372;52.050;4.810;2023-10-13T05:10:30;15.40;;;8.10;;
37527;SDS011;23372;52.050;4.810;2023-10-13T05:13:15;17.50;;;9.82;;
37527;SDS011;23372;52.050;4.810;2023-10-13T05:16:00;19.63;;;9.00;;
37527;SDS011;23372;52.050;4.810;2023-10-13T05:18:44;16.55;;;8.32;;
37527;SDS011;23372;52.050;4.810;2023-10-13T05:21:28;15.88;;;8.27;;
37527;SDS011;23372;52.050;4.810;2023-10-13T05:24:12;17.17;;;8.13;;
37527;SDS011;23372;52.050;4.810;2023-10-13T05:26:56;17.08;;;7.90;;
37527;SDS011;23372;52.050;4.810;2023-10-13T05:29:41;18.95;;;7.65;;
37527;SDS011;23372;52.050;4.810;2023-10-13T05:32:26;16.67;;;7.28;;
37527;SDS011;23372;52.050;4.810;2023-10-13T05:35:11;15.30;;;7.22;;
37527;SDS011;23372;52.050;4.810;2023-10-13T05:37:55;14.60;;;6.47;;
37527;SDS011;23372;52.050;4.810;2023-10-13T05:40:40;15.85;;;7.38;;
37527;SDS011;23372;52.050;4.810;2023-10-13T05:43:44;16.00;;;6.32;;
37527;SDS011;23372;52.050;4.810;2023-10-13T05:46:28;13.68;;;6.13;;
37527;SDS011;23372;52.050;4.810;2023-10-13T05:49:14;17.85;;;6.90;;
37527;SDS011;23372;52.050;4.810;2023-10-13T05:51:44;14.80;;;7.30;;
37527;SDS011;23372;52.050;4.810;2023-10-13T05:54:23;15.98;;;7.63;;
37527;SDS011;23372;52.050;4.810;2023-10-13T05:57:07;13.05;;;7.07;;
37527;SDS011;23372;52.050;4.810;2023-10-13T05:59:52;12.75;;;7.22;;
37527;SDS011;23372;52.050;4.810;2023-10-13T06:02:36;17.58;;;7.50;;
37527;SDS011;23372;52.050;4.810;2023-10-13T06:05:20;22.02;;;8.23;;
37527;SDS011;23372;52.050;4.810;2023-10-13T06:08:04;17.67;;;7.22;;
37527;SDS011;23372;52.050;4.810;2023-10-13T06:10:48;14.82;;;7.70;;
37527;SDS011;23372;52.050;4.810;2023-10-13T06:13:32;17.10;;;8.45;;
37527;SDS011;23372;52.050;4.810;2023-10-13T06:16:17;14.70;;;8.18;;
37527;SDS011;23372;52.050;4.810;2023-10-13T06:19:01;19.27;;;7.85;;
37527;SDS011;23372;52.050;4.810;2023-10-13T06:21:45;14.02;;;7.85;;
37527;SDS011;23372;52.050;4.810;2023-10-13T06:24:29;19.55;;;9.48;;
37527;SDS011;23372;52.050;4.810;2023-10-13T06:27:14;20.73;;;9.45;;
37527;SDS011;23372;52.050;4.810;2023-10-13T06:29:59;17.77;;;8.75;;
37527;SDS011;23372;52.050;4.810;2023-10-13T06:32:25;20.58;;;9.65;;
37527;SDS011;23372;52.050;4.810;2023-10-13T06:34:52;20.88;;;9.95;;
37527;SDS011;23372;52.050;4.810;2023-10-13T06:37:22;16.20;;;9.43;;
37527;SDS011;23372;52.050;4.810;2023-10-13T06:39:55;19.05;;;10.38;;
37527;SDS011;23372;52.050;4.810;2023-10-13T06:42:22;18.33;;;10.48;;
37527;SDS011;23372;52.050;4.810;2023-10-13T06:44:52;16.25;;;9.70;;
37527;SDS011;23372;52.050;4.810;2023-10-13T06:47:19;18.23;;;10.38;;
37527;SDS011;23372;52.050;4.810;2023-10-13T06:49:45;19.02;;;10.02;;
37527;SDS011;23372;52.050;4.810;2023-10-13T06:52:13;19.48;;;10.68;;
37527;SDS011;23372;52.050;4.810;2023-10-13T06:54:41;21.35;;;10.48;;
37527;SDS011;23372;52.050;4.810;2023-10-13T06:57:08;20.45;;;10.57;;
37527;SDS011;23372;52.050;4.810;2023-10-13T06:59:39;19.33;;;13.35;;
37527;SDS011;23372;52.050;4.810;2023-10-13T07:02:05;20.20;;;13.13;;
37527;SDS011;23372;52.050;4.810;2023-10-13T07:04:33;22.02;;;14.77;;
37527;SDS011;23372;52.050;4.810;2023-10-13T07:06:59;27.58;;;17.20;;
37527;SDS011;23372;52.050;4.810;2023-10-13T07:09:26;22.33;;;16.90;;
37527;SDS011;23372;52.050;4.810;2023-10-13T07:12:01;28.25;;;17.98;;
37527;SDS011;23372;52.050;4.810;2023-10-13T07:14:48;30.08;;;18.02;;
37527;SDS011;23372;52.050;4.810;2023-10-13T07:17:17;31.65;;;19.17;;
37527;SDS011;23372;52.050;4.810;2023-10-13T07:19:50;32.90;;;19.35;;
37527;SDS011;23372;52.050;4.810;2023-10-13T07:22:31;28.92;;;18.50;;
37527;SDS011;23372;52.050;4.810;2023-10-13T07:25:04;30.67;;;17.00;;
37527;SDS011;23372;52.050;4.810;2023-10-13T07:27:31;26.75;;;15.65;;
37527;SDS011;23372;52.050;4.810;2023-10-13T07:30:00;25.98;;;15.48;;
37527;SDS011;23372;52.050;4.810;2023-10-13T07:32:38;32.60;;;14.38;;
37527;SDS011;23372;52.050;4.810;2023-10-13T07:35:10;22.88;;;13.25;;
37527;SDS011;23372;52.050;4.810;2023-10-13T07:37:36;26.50;;;13.05;;
37527;SDS011;23372;52.050;4.810;2023-10-13T07:40:06;27.75;;;12.95;;
37527;SDS011;23372;52.050;4.810;2023-10-13T07:42:53;25.85;;;12.32;;
37527;SDS011;23372;52.050;4.810;2023-10-13T07:45:26;19.83;;;11.57;;
37527;SDS011;23372;52.050;4.810;2023-10-13T07:48:00;22.85;;;11.57;;
37527;SDS011;23372;52.050;4.810;2023-10-13T07:50:37;21.55;;;10.35;;
37527;SDS011;23372;52.050;4.810;2023-10-13T07:53:05;34.55;;;12.35;;
37527;SDS011;23372;52.050;4.810;2023-10-13T07:55:44;21.13;;;10.77;;
37527;SDS011;23372;52.050;4.810;2023-10-13T07:58:12;25.75;;;10.40;;
37527;SDS011;23372;52.050;4.810;2023-10-13T08:00:38;22.23;;;11.00;;
37527;SDS011;23372;52.050;4.810;2023-10-13T08:03:10;23.65;;;11.02;;
37527;SDS011;23372;52.050;4.810;2023-10-13T08:05:42;22.13;;;10.50;;
37527;SDS011;23372;52.050;4.810;2023-10-13T08:08:26;24.17;;;10.82;;
37527;SDS011;23372;52.050;4.810;2023-10-13T08:11:05;24.13;;;9.30;;
37527;SDS011;23372;52.050;4.810;2023-10-13T08:13:56;20.58;;;9.75;;
37527;SDS011;23372;52.050;4.810;2023-10-13T08:16:35;25.75;;;9.90;;
37527;SDS011;23372;52.050;4.810;2023-10-13T08:19:14;30.02;;;10.00;;
37527;SDS011;23372;52.050;4.810;2023-10-13T08:21:44;18.77;;;10.10;;
37527;SDS011;23372;52.050;4.810;2023-10-13T08:24:23;20.38;;;10.35;;
37527;SDS011;23372;52.050;4.810;2023-10-13T08:26:54;21.02;;;10.02;;
37527;SDS011;23372;52.050;4.810;2023-10-13T08:29:43;19.67;;;9.07;;
37527;SDS011;23372;52.050;4.810;2023-10-13T08:32:24;24.20;;;10.23;;
37527;SDS011;23372;52.050;4.810;2023-10-13T08:34:54;21.90;;;10.23;;
37527;SDS011;23372;52.050;4.810;2023-10-13T08:37:32;24.80;;;9.73;;
37527;SDS011;23372;52.050;4.810;2023-10-13T08:40:11;18.15;;;9.55;;
37527;SDS011;23372;52.050;4.810;2023-10-13T08:42:57;20.40;;;9.02;;
37527;SDS011;23372;52.050;4.810;2023-10-13T08:45:27;23.77;;;8.68;;
37527;SDS011;23372;52.050;4.810;2023-10-13T08:47:58;17.50;;;8.85;;
37527;SDS011;23372;52.050;4.810;2023-10-13T08:53:13;15.93;;;8.55;;
37527;SDS011;23372;52.050;4.810;2023-10-13T08:56:10;16.05;;;7.97;;
37527;SDS011;23372;52.050;4.810;2023-10-13T09:01:21;13.05;;;7.32;;
37527;SDS011;23372;52.050;4.810;2023-10-13T09:04:24;16.35;;;7.88;;
37527;SDS011;23372;52.050;4.810;2023-10-13T09:06:57;17.92;;;8.27;;
37527;SDS011;23372;52.050;4.810;2023-10-13T09:12:11;15.13;;;7.85;;
37527;SDS011;23372;52.050;4.810;2023-10-13T09:14:50;19.77;;;7.55;;
37527;SDS011;23372;52.050;4.810;2023-10-13T09:17:26;17.17;;;6.93;;
37527;SDS011;23372;52.050;4.810;2023-10-13T09:20:04;17.70;;;7.28;;
37527;SDS011;23372;52.050;4.810;2023-10-13T09:22:52;20.75;;;7.40;;
37527;SDS011;23372;52.050;4.810;2023-10-13T09:25:33;23.50;;;7.72;;
37527;SDS011;23372;52.050;4.810;2023-10-13T09:28:01;19.02;;;7.55;;
37527;SDS011;23372;52.050;4.810;2023-10-13T09:30:49;25.45;;;7.78;;
37527;SDS011;23372;52.050;4.810;2023-10-13T09:33:22;15.98;;;7.15;;
37527;SDS011;23372;52.050;4.810;2023-10-13T09:36:00;19.67;;;8.02;;
37527;SDS011;23372;52.050;4.810;2023-10-13T09:38:32;23.38;;;7.50;;
37527;SDS011;23372;52.050;4.810;2023-10-13T09:40:59;16.67;;;6.85;;
37527;SDS011;23372;52.050;4.810;2023-10-13T09:43:34;17.23;;;7.50;;
37527;SDS011;23372;52.050;4.810;2023-10-13T09:46:02;16.85;;;7.18;;
37527;SDS011;23372;52.050;4.810;2023-10-13T09:48:38;16.95;;;7.95;;
37527;SDS011;23372;52.050;4.810;2023-10-13T09:51:14;21.77;;;8.35;;
37527;SDS011;23372;52.050;4.810;2023-10-13T09:53:47;16.60;;;7.18;;
37527;SDS011;23372;52.050;4.810;2023-10-13T09:56:20;25.90;;;7.80;;
37527;SDS011;23372;52.050;4.810;2023-10-13T09:59:02;22.55;;;7.88;;
37527;SDS011;23372;52.050;4.810;2023-10-13T10:01:41;16.30;;;7.47;;
37527;SDS011;23372;52.050;4.810;2023-10-13T10:04:24;12.40;;;6.38;;
37527;SDS011;23372;52.050;4.810;2023-10-13T10:06:57;20.77;;;8.00;;
37527;SDS011;23372;52.050;4.810;2023-10-13T10:09:27;28.80;;;7.78;;
37527;SDS011;23372;52.050;4.810;2023-10-13T10:17:21;22.38;;;7.82;;
37527;SDS011;23372;52.050;4.810;2023-10-13T10:22:13;16.05;;;7.13;;
37527;SDS011;23372;52.050;4.810;2023-10-13T10:25:00;19.30;;;7.32;;
37527;SDS011;23372;52.050;4.810;2023-10-13T10:27:28;16.20;;;6.38;;
37527;SDS011;23372;52.050;4.810;2023-10-13T10:29:55;15.55;;;6.50;;
37527;SDS011;23372;52.050;4.810;2023-10-13T10:32:21;26.33;;;7.90;;
37527;SDS011;23372;52.050;4.810;2023-10-13T10:35:04;16.20;;;6.68;;
37527;SDS011;23372;52.050;4.810;2023-10-13T10:37:45;18.75;;;7.25;;
37527;SDS011;23372;52.050;4.810;2023-10-13T10:40:17;17.58;;;7.30;;
37527;SDS011;23372;52.050;4.810;2023-10-13T10:43:03;15.95;;;6.63;;
37527;SDS011;23372;52.050;4.810;2023-10-13T10:45:33;17.00;;;6.82;;
37527;SDS011;23372;52.050;4.810;2023-10-13T10:48:02;17.52;;;7.25;;
37527;SDS011;23372;52.050;4.810;2023-10-13T10:50:43;16.27;;;7.15;;
37527;SDS011;23372;52.050;4.810;2023-10-13T10:53:18;24.08;;;7.47;;
37527;SDS011;23372;52.050;4.810;2023-10-13T10:55:46;16.48;;;6.57;;
37527;SDS011;23372;52.050;4.810;2023-10-13T10:58:12;16.77;;;7.53;;
37527;SDS011;23372;52.050;4.810;2023-10-13T11:01:03;18.42;;;6.95;;
37527;SDS011;23372;52.050;4.810;2023-10-13T11:03:35;17.58;;;7.35;;
37527;SDS011;23372;52.050;4.810;2023-10-13T11:06:03;19.02;;;7.93;;
37527;SDS011;23372;52.050;4.810;2023-10-13T11:08:30;20.48;;;7.18;;
37527;SDS011;23372;52.050;4.810;2023-10-13T11:10:57;14.52;;;6.63;;
37527;SDS011;23372;52.050;4.810;2023-10-13T11:13:25;21.55;;;7.57;;
37527;SDS011;23372;52.050;4.810;2023-10-13T11:15:55;19.92;;;7.47;;
37527;SDS011;23372;52.050;4.810;2023-10-13T11:18:28;21.52;;;7.72;;
37527;SDS011;23372;52.050;4.810;2023-10-13T11:21:02;20.20;;;7.35;;
37527;SDS011;23372;52.050;4.810;2023-10-13T11:23:32;19.20;;;7.28;;
37527;SDS011;23372;52.050;4.810;2023-10-13T11:26:01;21.52;;;8.90;;
37527;SDS011;23372;52.050;4.810;2023-10-13T11:28:28;21.33;;;7.65;;
37527;SDS011;23372;52.050;4.810;2023-10-13T11:30:57;23.13;;;7.50;;
37527;SDS011;23372;52.050;4.810;2023-10-13T11:33:24;27.73;;;7.75;;
37527;SDS011;23372;52.050;4.810;2023-10-13T11:35:54;19.23;;;6.95;;
37527;SDS011;23372;52.050;4.810;2023-10-13T11:40:53;14.25;;;6.15;;
37527;SDS011;23372;52.050;4.810;2023-10-13T11:43:58;17.45;;;6.47;;
37527;SDS011;23372;52.050;4.810;2023-10-13T11:46:48;14.48;;;6.20;;
37527;SDS011;23372;52.050;4.810;2023-10-13T11:49:22;18.42;;;7.00;;
37527;SDS011;23372;52.050;4.810;2023-10-13T11:51:53;18.90;;;6.43;;
37527;SDS011;23372;52.050;4.810;2023-10-13T11:54:54;20.92;;;6.82;;
37527;SDS011;23372;52.050;4.810;2023-10-13T11:57:20;16.27;;;6.63;;
37527;SDS011;23372;52.050;4.810;2023-10-13T11:59:46;17.98;;;7.22;;
37527;SDS011;23372;52.050;4.810;2023-10-13T12:02:18;19.90;;;7.00;;
37527;SDS011;23372;52.050;4.810;2023-10-13T12:04:50;15.73;;;6.85;;
37527;SDS011;23372;52.050;4.810;2023-10-13T12:07:28;18.63;;;6.38;;
37527;SDS011;23372;52.050;4.810;2023-10-13T12:10:13;19.88;;;6.00;;
37527;SDS011;23372;52.050;4.810;2023-10-13T12:12:59;24.63;;;6.63;;
37527;SDS011;23372;52.050;4.810;2023-10-13T12:15:30;20.75;;;7.43;;
37527;SDS011;23372;52.050;4.810;2023-10-13T12:18:03;21.55;;;6.97;;
37527;SDS011;23372;52.050;4.810;2023-10-13T12:20:30;16.67;;;6.82;;
37527;SDS011;23372;52.050;4.810;2023-10-13T12:22:59;18.70;;;6.82;;
37527;SDS011;23372;52.050;4.810;2023-10-13T12:25:35;23.17;;;7.00;;
37527;SDS011;23372;52.050;4.810;2023-10-13T12:28:19;22.83;;;8.05;;
37527;SDS011;23372;52.050;4.810;2023-10-13T12:30:48;20.15;;;6.25;;
37527;SDS011;23372;52.050;4.810;2023-10-13T12:33:15;17.45;;;6.40;;
37527;SDS011;23372;52.050;4.810;2023-10-13T12:36:00;22.15;;;6.93;;
37527;SDS011;23372;52.050;4.810;2023-10-13T12:38:38;18.52;;;6.43;;
37527;SDS011;23372;52.050;4.810;2023-10-13T12:41:19;19.10;;;6.97;;
37527;SDS011;23372;52.050;4.810;2023-10-13T12:44:04;22.23;;;7.82;;
37527;SDS011;23372;52.050;4.810;2023-10-13T12:46:49;18.35;;;7.28;;
37527;SDS011;23372;52.050;4.810;2023-10-13T12:49:34;19.85;;;6.97;;
37527;SDS011;23372;52.050;4.810;2023-10-13T12:52:06;17.50;;;6.82;;
37527;SDS011;23372;52.050;4.810;2023-10-13T12:54:44;16.90;;;6.85;;
37527;SDS011;23372;52.050;4.810;2023-10-13T12:57:19;18.45;;;7.05;;
37527;SDS011;23372;52.050;4.810;2023-10-13T12:59:48;16.92;;;7.00;;
37527;SDS011;23372;52.050;4.810;2023-10-13T13:02:14;16.30;;;7.43;;
37527;SDS011;23372;52.050;4.810;2023-10-13T13:04:41;26.67;;;8.38;;
37527;SDS011;23372;52.050;4.810;2023-10-13T13:07:09;23.52;;;7.60;;
37527;SDS011;23372;52.050;4.810;2023-10-13T13:09:41;15.23;;;7.28;;
37527;SDS011;23372;52.050;4.810;2023-10-13T13:12:07;17.55;;;7.38;;
37527;SDS011;23372;52.050;4.810;2023-10-13T13:14:37;18.92;;;7.63;;
37527;SDS011;23372;52.050;4.810;2023-10-13T13:17:05;24.63;;;8.15;;
37527;SDS011;23372;52.050;4.810;2023-10-13T13:19:34;23.40;;;8.13;;
37527;SDS011;23372;52.050;4.810;2023-10-13T13:22:04;20.33;;;8.50;;
37527;SDS011;23372;52.050;4.810;2023-10-13T13:24:36;18.35;;;8.07;;
37527;SDS011;23372;52.050;4.810;2023-10-13T13:27:12;21.70;;;9.07;;
37527;SDS011;23372;52.050;4.810;2023-10-13T13:29:47;21.20;;;8.35;;
37527;SDS011;23372;52.050;4.810;2023-10-13T13:32:12;21.80;;;7.10;;
37527;SDS011;23372;52.050;4.810;2023-10-13T13:34:48;18.52;;;8.45;;
37527;SDS011;23372;52.050;4.810;2023-10-13T13:37:30;20.25;;;8.43;;
37527;SDS011;23372;52.050;4.810;2023-10-13T13:39:56;22.20;;;9.40;;
37527;SDS011;23372;52.050;4.810;2023-10-13T13:42:28;23.63;;;8.45;;
37527;SDS011;23372;52.050;4.810;2023-10-13T13:44:54;20.63;;;8.23;;
37527;SDS011;23372;52.050;4.810;2023-10-13T13:47:23;24.70;;;8.80;;
37527;SDS011;23372;52.050;4.810;2023-10-13T13:49:49;17.92;;;7.78;;
37527;SDS011;23372;52.050;4.810;2023-10-13T13:52:19;22.80;;;7.93;;
37527;SDS011;23372;52.050;4.810;2023-10-13T13:54:58;16.85;;;8.43;;
37527;SDS011;23372;52.050;4.810;2023-10-13T13:57:28;22.13;;;8.65;;
37527;SDS011;23372;52.050;4.810;2023-10-13T13:59:55;17.48;;;7.50;;
37527;SDS011;23372;52.050;4.810;2023-10-13T14:02:22;25.20;;;8.70;;
37527;SDS011;23372;52.050;4.810;2023-10-13T14:04:48;27.45;;;8.80;;
37527;SDS011;23372;52.050;4.810;2023-10-13T14:07:20;20.27;;;8.30;;
37527;SDS011;23372;52.050;4.810;2023-10-13T14:09:49;22.95;;;8.40;;
37527;SDS011;23372;52.050;4.810;2023-10-13T14:12:17;17.02;;;6.70;;
37527;SDS011;23372;52.050;4.810;2023-10-13T14:15:06;21.20;;;7.88;;
37527;SDS011;23372;52.050;4.810;2023-10-13T14:17:45;15.25;;;6.63;;
37527;SDS011;23372;52.050;4.810;2023-10-13T14:20:11;19.90;;;6.95;;
37527;SDS011;23372;52.050;4.810;2023-10-13T14:22:43;13.52;;;5.30;;
37527;SDS011;23372;52.050;4.810;2023-10-13T14:25:12;15.35;;;4.13;;
37527;SDS011;23372;52.050;4.810;2023-10-13T14:27:39;12.45;;;4.15;;
37527;SDS011;23372;52.050;4.810;2023-10-13T14:30:06;14.52;;;4.85;;
37527;SDS011;23372;52.050;4.810;2023-10-13T14:32:32;12.32;;;4.00;;
37527;SDS011;23372;52.050;4.810;2023-10-13T14:35:04;10.85;;;4.68;;
37527;SDS011;23372;52.050;4.810;2023-10-13T14:37:39;12.63;;;4.03;;
37527;SDS011;23372;52.050;4.810;2023-10-13T14:40:05;18.63;;;5.30;;
37527;SDS011;23372;52.050;4.810;2023-10-13T14:42:36;16.77;;;4.72;;
37527;SDS011;23372;52.050;4.810;2023-10-13T14:45:05;16.55;;;4.85;;
37527;SDS011;23372;52.050;4.810;2023-10-13T14:47:37;17.33;;;5.28;;
37527;SDS011;23372;52.050;4.810;2023-10-13T14:50:04;22.30;;;5.30;;
37527;SDS011;23372;52.050;4.810;2023-10-13T14:52:30;21.50;;;6.30;;
37527;SDS011;23372;52.050;4.810;2023-10-13T14:54:57;18.65;;;6.32;;
37527;SDS011;23372;52.050;4.810;2023-10-13T14:57:23;27.90;;;6.65;;
37527;SDS011;23372;52.050;4.810;2023-10-13T14:59:52;26.83;;;6.35;;
37527;SDS011;23372;52.050;4.810;2023-10-13T15:02:18;23.25;;;6.45;;
37527;SDS011;23372;52.050;4.810;2023-10-13T15:04:45;26.58;;;7.55;;
37527;SDS011;23372;52.050;4.810;2023-10-13T15:07:13;27.48;;;6.88;;
37527;SDS011;23372;52.050;4.810;2023-10-13T15:09:40;21.55;;;7.03;;
37527;SDS011;23372;52.050;4.810;2023-10-13T15:12:07;22.73;;;7.22;;
37527;SDS011;23372;52.050;4.810;2023-10-13T15:14:35;24.83;;;6.10;;
37527;SDS011;23372;52.050;4.810;2023-10-13T15:17:04;21.77;;;7.72;;
37527;SDS011;23372;52.050;4.810;2023-10-13T15:19:31;26.08;;;7.10;;
37527;SDS011;23372;52.050;4.810;2023-10-13T15:22:04;32.75;;;8.55;;
37527;SDS011;23372;52.050;4.810;2023-10-13T15:24:37;21.20;;;7.22;;